Time;durP1;ratioP1;P1;durP2;ratioP2;P2;SDS_P1;SDS_P2;PMS_P1;PMS_P2;Temp;Humidity;BMP_temperature;BMP_pressure;BME280_temperature;BME280_humidity;BME280_pressure;Samples;Min_cycle;Max_cycle;Signal;HPM_P1;HPM_P2
2021/04/09 00:07:06;;;;;;;16.80;7.47;;;;;;;0.16;78.20;100672.13;20816359;28;20104;-66
2021/04/09 00:17:07;;;;;;;16.52;7.40;;;;;;;-0.05;79.02;100665.41;20831719;28;20053;-66
2021/04/09 00:27:08;;;;;;;17.15;8.13;;;;;;;-0.14;79.11;100662.91;20830717;28;20049;-66
2021/04/09 00:37:09;;;;;;;13.60;6.85;;;;;;;-0.28;79.67;100659.59;20829468;28;20061;-66
2021/04/09 00:47:10;;;;;;;12.23;5.97;;;;;;;-0.36;80.13;100651.06;20829402;28;20100;-66
2021/04/09 00:57:12;;;;;;;15.60;6.28;;;;;;;-0.51;81.76;100644.28;20828871;28;20045;-66
2021/04/09 01:07:13;;;;;;;18.13;6.15;;;;;;;-0.54;81.01;100635.72;20826872;28;20049;-66
2021/04/09 01:17:35;;;;;;;16.23;7.40;;;;;;;-0.50;81.03;100637.41;20827036;28;20049;-67
2021/04/09 01:27:54;;;;;;;16.30;6.70;;;;;;;-0.47;80.49;100622.84;20825941;28;20073;-67
2021/04/09 01:38:06;;;;;;;13.63;7.15;;;;;;;-0.62;80.88;100611.81;20824863;28;20103;-67
2021/04/09 01:48:10;;;;;;;13.13;6.32;;;;;;;-0.65;82.01;100614.38;20824694;28;20104;-66
2021/04/09 01:58:13;;;;;;;11.80;6.57;;;;;;;-0.71;81.52;100599.00;20824596;28;20049;-66
2021/04/09 02:08:14;;;;;;;13.70;6.47;;;;;;;-0.83;82.57;100593.91;20822433;28;20049;-66
2021/04/09 02:18:15;;;;;;;15.75;6.38;;;;;;;-0.79;82.33;100590.47;20822255;28;20100;-66
2021/04/09 02:28:16;;;;;;;18.10;7.28;;;;;;;-0.86;82.57;100593.06;20821401;28;20045;-66
2021/04/09 02:38:17;;;;;;;15.45;6.88;;;;;;;-0.89;83.16;100584.53;20819747;28;20414;-66
2021/04/09 02:48:19;;;;;;;14.90;7.57;;;;;;;-0.96;82.93;100591.41;20820089;28;20060;-66
2021/04/09 02:58:21;;;;;;;14.43;7.85;;;;;;;-0.98;83.45;100577.72;20819857;28;20116;-67
2021/04/09 03:08:22;;;;;;;17.15;7.32;;;;;;;-0.99;83.87;100560.59;20818760;28;20044;-66
2021/04/09 03:18:25;;;;;;;15.35;7.88;;;;;;;-1.06;84.63;100558.91;20818955;28;20132;-66
2021/04/09 03:28:26;;;;;;;13.70;7.03;;;;;;;-1.04;84.59;100557.19;20818502;28;20104;-66
2021/04/09 03:38:27;;;;;;;15.70;7.75;;;;;;;-1.03;85.61;100558.91;20817836;28;20045;-66
2021/04/09 03:48:28;;;;;;;14.05;7.57;;;;;;;-0.97;85.27;100546.03;20827972;28;20097;-66
2021/04/09 03:58:29;;;;;;;18.02;7.65;;;;;;;-1.06;85.49;100543.50;20833386;28;20497;-66
2021/04/09 04:08:30;;;;;;;14.18;7.72;;;;;;;-1.08;84.74;100547.81;20831603;28;20120;-66
2021/04/09 04:18:31;;;;;;;20.10;9.88;;;;;;;-1.13;86.35;100546.97;20831471;28;20085;-66
2021/04/09 04:28:32;;;;;;;20.00;8.98;;;;;;;-1.11;85.93;100540.09;20830117;28;20088;-66
2021/04/09 04:38:33;;;;;;;21.23;9.43;;;;;;;-1.09;86.40;100543.53;20826114;28;20045;-66
2021/04/09 04:48:34;;;;;;;14.25;7.60;;;;;;;-1.07;85.84;100541.81;20823006;28;20045;-68
2021/04/09 04:58:35;;;;;;;16.88;8.02;;;;;;;-0.96;86.46;100534.88;20828586;28;20081;-68
2021/04/09 05:08:36;;;;;;;17.42;8.73;;;;;;;-0.75;86.68;100530.47;20828685;28;20445;-68
2021/04/09 05:18:37;;;;;;;15.88;9.07;;;;;;;-0.56;87.21;100534.66;20828640;28;20493;-68
2021/04/09 05:28:38;;;;;;;20.17;8.90;;;;;;;-0.24;86.89;100537.81;20827603;28;20053;-68
2021/04/09 05:38:39;;;;;;;20.70;9.02;;;;;;;0.24;85.70;100512.50;20826168;28;20469;-68
2021/04/09 05:48:40;;;;;;;20.08;9.75;;;;;;;0.75;84.67;100509.34;20825525;28;20053;-68
2021/04/09 05:58:40;;;;;;;18.77;10.23;;;;;;;1.35;83.41;100516.22;20825015;28;20493;-69
2021/04/09 06:08:42;;;;;;;25.25;13.60;;;;;;;1.71;81.93;100515.66;20823021;28;20041;-69
2021/04/09 06:18:43;;;;;;;27.40;14.32;;;;;;;2.35;79.28;100515.38;20823558;28;20132;-69
2021/04/09 06:28:44;;;;;;;15.88;9.27;;;;;;;2.76;75.76;100516.28;20822662;28;20045;-68
2021/04/09 06:38:45;;;;;;;16.92;8.52;;;;;;;3.13;74.19;100504.28;20821115;28;20037;-68
2021/04/09 06:48:46;;;;;;;15.93;9.27;;;;;;;3.47;72.09;100495.75;20821348;28;20068;-68
2021/04/09 06:58:48;;;;;;;18.33;9.20;;;;;;;3.87;69.47;100497.31;20819901;28;20497;-69
2021/04/09 07:08:49;;;;;;;17.42;10.43;;;;;;;4.13;67.68;100488.88;20845147;28;20429;-69
2021/04/09 07:18:53;;;;;;;15.93;8.68;;;;;;;4.47;66.73;100468.06;20915027;28;20108;-69
2021/04/09 07:28:54;;;;;;;20.67;8.25;;;;;;;4.85;65.53;100469.56;20848730;28;20418;-69
2021/04/09 07:38:55;;;;;;;15.02;8.27;;;;;;;5.31;62.91;100473.34;20857261;28;20113;-69
2021/04/09 07:49:04;;;;;;;12.25;7.55;;;;;;;5.93;61.29;100461.78;20918583;28;20048;-69
2021/04/09 07:59:05;;;;;;;14.20;7.25;;;;;;;6.40;59.05;100441.03;20918322;28;20045;-69
2021/04/09 08:09:06;;;;;;;14.18;7.57;;;;;;;6.73;58.36;100432.00;20916729;28;20125;-69
2021/04/09 08:19:10;;;;;;;11.70;6.40;;;;;;;7.19;58.02;100432.81;20846427;28;20455;-69
2021/04/09 08:29:13;;;;;;;11.80;6.30;;;;;;;7.59;56.51;100425.06;20831943;28;20050;-69
2021/04/09 08:39:17;;;;;;;10.32;6.13;;;;;;;8.14;55.22;100428.78;20831740;28;20497;-69
2021/04/09 08:49:19;;;;;;;12.15;6.70;;;;;;;8.41;52.95;100428.50;20831668;28;20564;-70
2021/04/09 08:59:38;;;;;;;14.80;6.10;;;;;;;8.74;51.33;100426.09;20830853;28;20421;-69
2021/04/09 09:09:39;;;;;;;11.30;5.68;;;;;;;9.36;49.20;100413.53;20829645;28;20057;-69
2021/04/09 09:19:40;;;;;;;10.98;5.43;;;;;;;9.98;48.36;100393.84;20903666;28;20468;-67
2021/04/09 09:29:48;;;;;;;12.18;5.45;;;;;;;10.25;45.07;100400.28;20910820;28;20095;-69
2021/04/09 09:40:01;;;;;;;13.82;6.07;;;;;;;10.62;43.22;100383.44;20909452;28;20095;-69
2021/04/09 09:50:02;;;;;;;9.05;5.22;;;;;;;11.26;40.46;100371.13;20909682;28;20049;-69
2021/04/09 10:00:04;;;;;;;10.38;5.45;;;;;;;11.57;41.36;100363.19;20908369;28;20056;-70
2021/04/09 10:10:05;;;;;;;14.10;6.43;;;;;;;11.72;42.68;100346.56;20907447;28;20123;-69
2021/04/09 10:20:07;;;;;;;10.77;5.40;;;;;;;11.74;40.98;100333.34;20828047;28;20560;-70
2021/04/09 10:30:09;;;;;;;10.38;5.43;;;;;;;11.80;42.32;100333.00;20817130;28;20058;-70
2021/04/09 10:40:10;;;;;;;13.68;4.95;;;;;;;12.59;40.68;100320.19;20821465;28;20532;-70
2021/04/09 10:50:12;;;;;;;12.10;4.60;;;;;;;13.22;38.91;100305.50;20820768;28;20437;-70
2021/04/09 11:00:14;;;;;;;11.85;5.15;;;;;;;13.03;39.30;100284.00;20819487;28;20413;-71
2021/04/09 11:10:28;;;;;;;8.35;3.35;;;;;;;13.18;39.00;100271.66;20820545;28;20049;-70
2021/04/09 11:20:32;;;;;;;10.00;3.95;;;;;;;13.77;38.69;100264.94;20820421;28;20057;-70
2021/04/09 11:30:36;;;;;;;8.55;4.13;;;;;;;13.33;37.79;100261.91;20819274;28;20060;-70
2021/04/09 11:40:57;;;;;;;8.75;3.75;;;;;;;14.08;38.63;100246.06;20807973;23;20462;-73
2021/04/09 11:51:30;;;;;;;13.27;3.80;;;;;;;14.43;38.03;100229.53;20655738;28;20117;-74
2021/04/09 12:01:31;;;;;;;9.18;3.10;;;;;;;14.68;36.28;100221.50;20632698;28;20055;-74
2021/04/09 12:11:33;;;;;;;11.80;3.67;;;;;;;14.90;36.20;100207.59;20668595;28;20042;-74
2021/04/09 12:21:34;;;;;;;7.57;3.45;;;;;;;15.28;35.65;100202.06;20653935;28;20093;-73
2021/04/09 12:31:35;;;;;;;8.25;3.03;;;;;;;15.51;35.31;100197.63;20670618;28;20050;-74
2021/04/09 12:41:36;;;;;;;8.35;3.10;;;;;;;15.60;35.80;100194.28;20651437;28;20046;-74
2021/04/09 12:51:37;;;;;;;7.20;2.67;;;;;;;15.67;35.23;100177.88;20668826;28;20058;-74
2021/04/09 13:01:38;;;;;;;9.45;3.10;;;;;;;15.20;35.62;100159.59;20666033;28;20066;-74
2021/04/09 13:11:39;;;;;;;10.38;3.15;;;;;;;15.22;36.67;100153.25;20675485;28;20053;-74
2021/04/09 13:21:41;;;;;;;9.50;3.55;;;;;;;15.80;35.40;100143.41;20746515;28;20062;-74
2021/04/09 13:31:41;;;;;;;8.20;3.33;;;;;;;15.94;34.66;100127.34;20745644;28;20045;-75
2021/04/09 13:41:43;;;;;;;9.77;3.35;;;;;;;15.67;34.79;100118.97;20744619;28;20100;-74
2021/04/09 13:51:43;;;;;;;9.35;3.45;;;;;;;15.90;34.77;100098.69;20745643;28;20113;-75
2021/04/09 14:01:45;;;;;;;10.25;3.20;;;;;;;15.90;36.29;100088.94;20725432;28;20125;-74
2021/04/09 14:11:46;;;;;;;8.25;3.20;;;;;;;15.87;35.14;100083.91;20742742;28;20046;-74
2021/04/09 14:21:47;;;;;;;10.75;3.38;;;;;;;15.62;34.93;100069.22;20742192;28;20485;-75
2021/04/09 14:31:48;;;;;;;8.82;3.28;;;;;;;15.73;35.39;100071.00;20740240;28;20041;-75
2021/04/09 14:41:49;;;;;;;6.63;2.95;;;;;;;15.91;34.51;100056.28;20742756;28;20077;-75
2021/04/09 14:51:50;;;;;;;11.50;3.30;;;;;;;16.25;33.94;100052.53;20724149;28;20046;-75
2021/04/09 15:01:51;;;;;;;7.85;3.30;;;;;;;16.23;33.33;100043.94;20738203;28;20045;-75
2021/04/09 15:11:53;;;;;;;8.45;3.28;;;;;;;16.05;33.07;100045.44;20737594;28;20053;-75
2021/04/09 15:21:55;;;;;;;9.38;2.83;;;;;;;16.12;33.00;100030.78;20738331;28;20577;-76
2021/04/09 15:31:56;;;;;;;8.40;3.20;;;;;;;16.38;32.54;100030.41;20737658;28;20042;-76
2021/04/09 15:41:58;;;;;;;7.18;2.65;;;;;;;16.23;33.09;100017.50;20745658;28;20093;-76
2021/04/09 15:52:02;;;;;;;8.90;2.53;;;;;;;16.23;32.74;100011.41;20752344;28;20050;-75
2021/04/09 16:02:03;;;;;;;7.22;2.33;;;;;;;15.94;33.18;99994.50;20751913;28;20057;-75
2021/04/09 16:12:04;;;;;;;6.55;2.13;;;;;;;15.81;33.68;99997.31;20751857;28;20081;-75
2021/04/09 16:22:05;;;;;;;7.38;2.25;;;;;;;15.38;34.86;99990.22;20750167;28;20105;-75
2021/04/09 16:32:07;;;;;;;6.28;2.25;;;;;;;15.45;34.70;100014.28;20751074;28;20042;-75
2021/04/09 16:42:08;;;;;;;7.28;2.33;;;;;;;15.31;35.73;100004.03;20749975;28;20054;-75
2021/04/09 16:52:16;;;;;;;12.32;2.40;;;;;;;15.20;35.98;100019.84;20749124;28;20124;-75
2021/04/09 17:02:17;;;;;;;5.65;1.83;;;;;;;15.02;37.99;100016.88;20752667;28;20088;-75
2021/04/09 17:12:18;;;;;;;5.40;2.08;;;;;;;14.93;37.41;100012.34;20752176;28;20057;-74
2021/04/09 17:22:19;;;;;;;6.70;2.40;;;;;;;15.04;36.30;100004.41;20747443;28;20054;-74
2021/04/09 17:32:20;;;;;;;7.03;2.08;;;;;;;14.90;36.49;100008.13;20745685;28;20125;-74
2021/04/09 17:42:21;;;;;;;5.45;1.85;;;;;;;14.82;36.54;100000.00;20744716;28;20057;-75
2021/04/09 17:52:22;;;;;;;5.10;1.83;;;;;;;14.58;36.98;99985.28;20744396;28;20417;-75
2021/04/09 18:02:23;;;;;;;7.93;2.10;;;;;;;14.30;37.94;99992.59;20743796;28;20049;-74
2021/04/09 18:12:24;;;;;;;8.27;1.70;;;;;;;14.13;38.37;99979.88;20744604;28;20096;-74
2021/04/09 18:22:26;;;;;;;5.93;2.22;;;;;;;13.86;39.78;99988.06;20726304;28;20042;-74
2021/04/09 18:32:27;;;;;;;7.22;3.08;;;;;;;13.56;41.11;100001.66;20740838;28;20124;-75
2021/04/09 18:42:28;;;;;;;8.40;2.95;;;;;;;13.35;41.19;100002.38;20741288;28;20133;-75
2021/04/09 18:52:29;;;;;;;5.32;2.67;;;;;;;13.21;41.86;99998.94;20741603;28;20418;-75
2021/04/09 19:02:30;;;;;;;9.32;3.80;;;;;;;13.12;42.47;100006.66;20741810;28;20417;-75
2021/04/09 19:12:31;;;;;;;6.90;2.80;;;;;;;13.02;43.16;100010.84;20742214;28;20465;-76
2021/04/09 19:22:32;;;;;;;5.72;2.78;;;;;;;13.64;44.93;100036.13;20741756;28;20046;-75
2021/04/09 19:32:50;;;;;;;7.97;2.60;;;;;;;13.56;47.15;100046.34;20747883;28;20489;-75
2021/04/09 19:42:51;;;;;;;8.45;2.65;;;;;;;13.41;48.07;100046.66;20745289;28;20056;-75
2021/04/09 19:52:53;;;;;;;6.13;2.17;;;;;;;13.27;49.37;100037.09;20745487;28;20104;-78
2021/04/09 20:02:54;;;;;;;10.38;2.67;;;;;;;13.16;50.70;100026.50;20747281;28;20042;-75
2021/04/09 20:12:55;;;;;;;6.38;2.20;;;;;;;13.30;50.69;100005.34;20748681;28;20604;-76
2021/04/09 20:23:00;;;;;;;;;;;;;;;13.16;51.87;100022.09;20748770;28;20437;-75
2021/04/09 20:33:01;;;;;;;6.90;2.33;;;;;;;12.78;53.23;100009.00;20745429;28;19967;-77
2021/04/09 20:43:02;;;;;;;7.82;3.55;;;;;;;12.46;54.14;99994.59;20751008;28;20057;-74
2021/04/09 20:53:03;;;;;;;6.68;2.45;;;;;;;12.21;55.72;99991.97;20751389;28;20050;-76
2021/04/09 21:03:04;;;;;;;8.32;2.63;;;;;;;12.06;55.89;99979.88;20748762;28;20101;-77
2021/04/09 21:13:06;;;;;;;8.15;2.85;;;;;;;11.75;58.28;99963.56;20748448;28;20054;-76
2021/04/09 21:23:07;;;;;;;7.75;3.30;;;;;;;11.51;60.19;99959.91;20746708;28;20045;-77
2021/04/09 21:33:08;;;;;;;7.93;2.60;;;;;;;11.44;61.73;99948.13;20746876;28;20073;-76
2021/04/09 21:43:09;;;;;;;7.93;2.88;;;;;;;11.40;61.51;99936.16;20746012;28;20513;-76
2021/04/09 21:53:10;;;;;;;8.68;2.88;;;;;;;11.54;59.59;99941.34;20745817;28;20085;-76
2021/04/09 22:03:12;;;;;;;9.25;2.83;;;;;;;11.37;60.34;99920.66;20714753;28;20042;-76
2021/04/09 22:13:14;;;;;;;8.75;2.60;;;;;;;11.21;60.39;99920.81;20628650;28;20050;-76
2021/04/09 22:23:18;;;;;;;11.02;2.90;;;;;;;11.00;61.39;99917.78;20660518;28;20054;-77
2021/04/09 22:33:20;;;;;;;6.77;2.70;;;;;;;10.73;62.12;99920.34;20660303;28;20115;-76
2021/04/09 22:43:21;;;;;;;9.32;2.40;;;;;;;10.43;63.96;99916.16;20659643;28;20054;-76
2021/04/09 22:53:22;;;;;;;12.13;4.85;;;;;;;10.11;65.59;99920.69;20659094;28;20050;-77
2021/04/09 23:03:23;;;;;;;11.90;5.63;;;;;;;9.85;66.56;99889.09;20640319;28;20042;-76
2021/04/09 23:13:24;;;;;;;11.50;4.57;;;;;;;9.64;67.29;99906.06;20659187;28;20047;-77
2021/04/09 23:23:24;;;;;;;10.60;4.13;;;;;;;9.41;68.61;99904.78;20658597;28;20055;-76
2021/04/09 23:33:25;;;;;;;9.50;4.97;;;;;;;9.25;69.98;99885.69;20657119;28;20067;-75
2021/04/09 23:43:26;;;;;;;8.70;4.28;;;;;;;9.44;69.81;99898.53;20655747;28;20049;-77
2021/04/09 23:53:27;;;;;;;8.07;3.53;;;;;;;9.58;70.04;99884.66;20656540;28;20046;-75
